Avalon, New Jersey
Current Conditions -  °F | °C
As of 9:35 PM on Friday 21 Nov 2014 (Local Time) from KWWD Reporting Station
Clear Clear  
Wind Chill: 26°   Ceiling: Unl
Heat Index: 32°   Visibility: 10mi
Dew Point: 10°   Wind: 6mph
Humidity: 41%   Direction: 330°NNW
Pressure: 30.53"   Gusts: NA
Location:  39.1°N, 74.72°W
Report Text: KWWD 220235Z AUTO 33005KT 10SM CLR 00/M12 A3053 RMK AO1
Loading
Personal Weather Stations






























Interactive Weather Map New forecast layout! Learn more

10-Day Weather Forecast

Advertisements
Track Severe Weather on mobile